Time;durP1;ratioP1;P1;durP2;ratioP2;P2;SDS_P1;SDS_P2;PMS_P1;PMS_P2;Temp;Humidity;BMP_temperature;BMP_pressure;BME280_temperature;BME280_humidity;BME280_pressure;Samples;Min_cycle;Max_cycle;Signal;HPM_P1;HPM_P2
2022/11/13 00:00:21;;;;;;;12.52;9.40;;;7.80;99.90;;;;;;4948959;28;20066;-81
2022/11/13 00:02:47;;;;;;;17.55;9.02;;;7.70;99.90;;;;;;4952696;28;20066;-80
2022/11/13 00:05:14;;;;;;;14.43;9.35;;;7.70;99.90;;;;;;4961825;28;20046;-81
2022/11/13 00:07:39;;;;;;;18.60;10.35;;;7.70;99.90;;;;;;4923530;28;20039;-80
2022/11/13 00:10:05;;;;;;;12.15;7.30;;;7.70;99.90;;;;;;4948706;28;20066;-80
2022/11/13 00:12:31;;;;;;;15.10;8.70;;;7.70;99.90;;;;;;4951545;28;20085;-80
2022/11/13 00:14:56;;;;;;;14.23;8.93;;;7.70;99.90;;;;;;4929376;28;20042;-80
2022/11/13 00:17:22;;;;;;;11.85;8.18;;;7.60;99.90;;;;;;4978881;28;20046;-80
2022/11/13 00:19:47;;;;;;;13.95;8.82;;;7.40;99.90;;;;;;4941804;28;20054;-80
2022/11/13 00:22:13;;;;;;;15.32;8.85;;;7.30;99.90;;;;;;4946486;28;20035;-81
2022/11/13 00:24:38;;;;;;;13.25;8.15;;;7.30;99.90;;;;;;4964898;28;20046;-80
2022/11/13 00:27:04;;;;;;;12.32;8.15;;;7.20;99.90;;;;;;4936276;28;20043;-80
2022/11/13 00:29:29;;;;;;;13.48;8.52;;;7.10;99.90;;;;;;4960399;28;20031;-81
2022/11/13 00:31:55;;;;;;;13.48;8.75;;;7.10;99.90;;;;;;4946172;28;20047;-79
2022/11/13 00:34:23;;;;;;;15.30;9.18;;;7.00;99.90;;;;;;4953189;28;20378;-79
2022/11/13 00:36:49;;;;;;;14.30;9.65;;;7.10;99.90;;;;;;4950337;28;20038;-79
2022/11/13 00:39:15;;;;;;;13.23;9.10;;;7.00;99.90;;;;;;4950119;28;20539;-80
2022/11/13 00:41:40;;;;;;;13.90;9.15;;;7.20;99.90;;;;;;4967410;28;20524;-80
2022/11/13 00:44:06;;;;;;;12.68;7.88;;;7.20;99.90;;;;;;4950023;28;20062;-79
2022/11/13 00:46:31;;;;;;;16.80;9.20;;;7.30;99.90;;;;;;4949739;28;20027;-79
2022/11/13 00:48:57;;;;;;;13.00;9.27;;;7.20;99.90;;;;;;4965380;28;20045;-80
2022/11/13 00:51:22;;;;;;;13.75;8.93;;;7.10;99.90;;;;;;4946268;28;20038;-80
2022/11/13 00:53:49;;;;;;;14.57;8.85;;;7.00;99.90;;;;;;4967314;28;20295;-80
2022/11/13 00:56:15;;;;;;;17.00;10.13;;;6.80;99.90;;;;;;4948648;28;20038;-80
2022/11/13 00:58:40;;;;;;;15.02;9.20;;;6.90;99.90;;;;;;4964632;28;20112;-79
2022/11/13 01:01:08;;;;;;;11.55;7.88;;;6.80;99.90;;;;;;4942597;28;20065;-80
2022/11/13 01:03:33;;;;;;;12.18;8.02;;;6.80;99.90;;;;;;4937561;28;20080;-80
2022/11/13 01:05:59;;;;;;;13.18;8.50;;;6.90;99.90;;;;;;4938712;28;20046;-80
2022/11/13 01:08:27;;;;;;;8.63;6.50;;;7.10;99.90;;;;;;4948157;28;20178;-80
2022/11/13 01:10:52;;;;;;;10.45;7.63;;;7.20;99.90;;;;;;4949405;28;20093;-79
2022/11/13 01:13:18;;;;;;;13.38;9.20;;;7.30;99.90;;;;;;4949848;28;20039;-79
2022/11/13 01:15:43;;;;;;;11.30;6.20;;;7.30;99.90;;;;;;4966383;28;20576;-80
2022/11/13 01:18:10;;;;;;;9.43;5.93;;;7.20;99.90;;;;;;4947343;28;20042;-79
2022/11/13 01:20:35;;;;;;;12.45;8.02;;;7.20;99.90;;;;;;4946374;28;20515;-77
2022/11/13 01:23:01;;;;;;;13.23;9.15;;;7.10;99.90;;;;;;4944335;28;20060;-78
2022/11/13 01:25:27;;;;;;;13.27;8.60;;;7.10;99.90;;;;;;4961500;28;20121;-77
2022/11/13 01:27:52;;;;;;;15.45;9.73;;;7.10;99.90;;;;;;4933084;28;20061;-77
2022/11/13 01:30:18;;;;;;;20.35;10.30;;;7.00;99.90;;;;;;4957164;28;20957;-76
2022/11/13 01:32:44;;;;;;;13.13;9.25;;;7.00;99.90;;;;;;4952506;28;20550;-78
2022/11/13 01:35:09;;;;;;;16.27;10.00;;;7.00;99.90;;;;;;4931760;28;20031;-78
2022/11/13 01:37:35;;;;;;;12.90;8.98;;;7.00;99.90;;;;;;4948257;28;20038;-79
2022/11/13 01:40:00;;;;;;;17.05;9.75;;;6.90;99.90;;;;;;4965986;28;20059;-78
2022/11/13 01:42:26;;;;;;;14.35;8.95;;;6.90;99.90;;;;;;4980342;28;20038;-78
2022/11/13 01:44:53;;;;;;;14.25;8.98;;;6.90;99.90;;;;;;4927384;28;20042;-78
2022/11/13 01:47:19;;;;;;;15.52;8.52;;;6.90;99.90;;;;;;4936710;28;20058;-78
2022/11/13 01:49:45;;;;;;;14.75;8.68;;;6.90;99.90;;;;;;4937292;28;20034;-78
2022/11/13 01:52:42;;;;;;;12.55;8.13;;;6.90;99.90;;;;;;4940033;28;20077;-79
2022/11/13 01:55:11;;;;;;;13.60;8.40;;;6.90;99.90;;;;;;4920097;28;20131;-78
2022/11/13 01:57:37;;;;;;;16.58;8.55;;;6.70;99.90;;;;;;4980041;28;20031;-78
2022/11/13 02:00:06;;;;;;;10.65;7.82;;;6.70;99.90;;;;;;4950577;28;20042;-78
2022/11/13 02:02:31;;;;;;;13.75;7.55;;;6.60;99.90;;;;;;4952657;28;20035;-78
2022/11/13 02:05:00;;;;;;;11.55;8.80;;;6.50;99.90;;;;;;4952760;28;20422;-78
2022/11/13 02:07:25;;;;;;;14.02;8.52;;;6.60;99.90;;;;;;4954580;28;20039;-78
2022/11/13 02:09:54;;;;;;;13.32;8.18;;;6.50;99.90;;;;;;4936312;28;20462;-78
2022/11/13 02:12:23;;;;;;;13.48;8.50;;;6.40;99.90;;;;;;4952080;28;20494;-78
2022/11/13 02:14:52;;;;;;;11.10;7.75;;;6.40;99.90;;;;;;4935196;28;20038;-78
2022/11/13 02:17:22;;;;;;;9.50;6.80;;;6.30;99.90;;;;;;4934888;28;20062;-76
2022/11/13 02:19:50;;;;;;;11.70;8.07;;;6.30;99.90;;;;;;4935648;28;20678;-78
2022/11/13 02:22:34;;;;;;;13.55;7.20;;;6.30;99.90;;;;;;4949649;28;20534;-78
2022/11/13 02:25:00;;;;;;;14.43;7.78;;;6.30;99.90;;;;;;4932111;28;20105;-78
2022/11/13 02:27:35;;;;;;;11.70;7.68;;;6.30;99.90;;;;;;4950659;28;20062;-78
2022/11/13 02:30:27;;;;;;;10.30;7.15;;;6.30;99.90;;;;;;4931243;28;20042;-78
2022/11/13 02:32:53;;;;;;;11.90;7.60;;;6.40;99.90;;;;;;4950140;28;20578;-78
2022/11/13 02:35:22;;;;;;;14.40;7.68;;;6.50;99.90;;;;;;4974371;28;20089;-78
2022/11/13 02:37:47;;;;;;;12.07;7.78;;;6.50;99.90;;;;;;4965908;28;20094;-78
2022/11/13 02:40:13;;;;;;;12.88;8.50;;;6.50;99.90;;;;;;4949711;28;20042;-76
2022/11/13 02:42:38;;;;;;;11.43;7.30;;;6.50;99.90;;;;;;4935411;28;20039;-75
2022/11/13 02:45:05;;;;;;;13.73;8.00;;;6.50;99.90;;;;;;4929849;28;20038;-76
2022/11/13 02:47:30;;;;;;;12.50;7.82;;;6.50;99.90;;;;;;4933907;28;20059;-75
2022/11/13 02:49:56;;;;;;;12.40;7.75;;;6.40;99.90;;;;;;4951109;28;20077;-76
2022/11/13 02:52:21;;;;;;;14.88;7.72;;;6.40;99.90;;;;;;4950354;28;20382;-76
2022/11/13 02:54:47;;;;;;;9.07;7.32;;;6.40;99.90;;;;;;4965109;28;20043;-76
2022/11/13 02:57:13;;;;;;;10.23;7.70;;;6.30;99.90;;;;;;4974949;28;20517;-75
2022/11/13 02:59:38;;;;;;;17.83;7.82;;;6.30;99.90;;;;;;4951079;28;20031;-75
2022/11/13 03:02:04;;;;;;;12.10;7.75;;;6.40;99.90;;;;;;4951783;28;20978;-75
2022/11/13 03:04:29;;;;;;;9.30;6.30;;;6.30;99.90;;;;;;4959220;28;20085;-76
2022/11/13 03:06:55;;;;;;;12.13;7.65;;;6.40;99.90;;;;;;4932499;28;20031;-76
2022/11/13 03:09:20;;;;;;;13.60;7.90;;;6.20;99.90;;;;;;4946367;28;20347;-76
2022/11/13 03:11:46;;;;;;;11.88;7.03;;;6.20;99.90;;;;;;4958237;28;20053;-76
2022/11/13 03:14:11;;;;;;;10.00;6.57;;;6.10;99.90;;;;;;4950099;28;20027;-76
2022/11/13 03:16:37;;;;;;;9.48;6.45;;;6.20;99.90;;;;;;4931745;28;20038;-76
2022/11/13 03:19:02;;;;;;;10.77;6.40;;;6.20;99.90;;;;;;4963525;28;20859;-77
2022/11/13 03:21:30;;;;;;;11.18;7.18;;;6.10;99.90;;;;;;4933307;28;20035;-78
2022/11/13 03:23:57;;;;;;;11.00;6.88;;;6.10;99.90;;;;;;4949973;28;20035;-78
2022/11/13 03:26:23;;;;;;;10.05;7.78;;;6.00;99.90;;;;;;4931454;28;20047;-77
2022/11/13 03:28:48;;;;;;;9.65;6.97;;;6.00;99.90;;;;;;4979767;28;20035;-77
2022/11/13 03:31:14;;;;;;;10.65;6.82;;;5.90;99.90;;;;;;4961005;28;20126;-77
2022/11/13 03:33:39;;;;;;;13.77;7.78;;;5.90;99.90;;;;;;4965762;28;20450;-77
2022/11/13 03:36:05;;;;;;;11.35;7.28;;;5.90;99.90;;;;;;4944778;28;20030;-77
2022/11/13 03:38:31;;;;;;;13.07;7.57;;;5.90;99.90;;;;;;4928302;28;20122;-77
2022/11/13 03:40:56;;;;;;;10.20;6.88;;;5.80;99.90;;;;;;4961492;28;20039;-77
2022/11/13 03:43:22;;;;;;;14.75;8.30;;;5.90;99.90;;;;;;4961115;28;20039;-77
2022/11/13 03:45:48;;;;;;;11.45;7.72;;;5.70;99.90;;;;;;4936194;28;20042;-77
2022/11/13 03:48:14;;;;;;;11.48;7.85;;;5.70;99.90;;;;;;4932108;28;20027;-76
2022/11/13 03:50:41;;;;;;;13.45;7.00;;;5.70;99.90;;;;;;4950242;28;20048;-77
2022/11/13 03:53:07;;;;;;;13.00;8.20;;;5.70;99.90;;;;;;4959354;28;20437;-79
2022/11/13 03:55:32;;;;;;;16.02;8.48;;;5.60;99.90;;;;;;4948863;28;20119;-79
2022/11/13 03:57:58;;;;;;;12.88;7.82;;;5.50;99.90;;;;;;4950421;28;20113;-79
2022/11/13 04:00:23;;;;;;;12.07;7.85;;;5.50;99.90;;;;;;4949407;28;20031;-79
2022/11/13 04:02:49;;;;;;;13.35;7.40;;;5.50;99.90;;;;;;4943837;28;20486;-79
2022/11/13 04:05:14;;;;;;;13.90;8.45;;;5.30;99.90;;;;;;4964981;28;20034;-79
2022/11/13 04:07:40;;;;;;;12.05;8.07;;;5.30;99.90;;;;;;4930223;28;20410;-78
2022/11/13 04:10:06;;;;;;;12.50;7.13;;;5.30;99.90;;;;;;4937387;28;20054;-79
2022/11/13 04:12:31;;;;;;;11.68;8.15;;;5.40;99.90;;;;;;4948674;28;20039;-79
2022/11/13 04:14:57;;;;;;;12.55;7.75;;;5.20;99.90;;;;;;4946019;28;20042;-79
2022/11/13 04:17:22;;;;;;;15.18;7.75;;;5.20;99.90;;;;;;4932334;28;20038;-79
2022/11/13 04:19:48;;;;;;;15.38;8.05;;;5.30;99.90;;;;;;4945898;28;20066;-79
2022/11/13 04:22:13;;;;;;;12.35;7.22;;;5.30;99.90;;;;;;4931623;28;20074;-79
2022/11/13 04:24:39;;;;;;;10.02;7.50;;;5.40;99.90;;;;;;4963914;28;20034;-79
2022/11/13 04:27:04;;;;;;;12.90;8.25;;;5.40;99.90;;;;;;4948101;28;20046;-80
2022/11/13 04:29:30;;;;;;;12.75;8.02;;;5.30;99.90;;;;;;4947068;28;20030;-79
2022/11/13 04:31:55;;;;;;;12.77;7.32;;;5.20;99.90;;;;;;4947648;28;20039;-78
2022/11/13 04:34:21;;;;;;;10.63;6.85;;;5.10;99.90;;;;;;4947381;28;20430;-78
2022/11/13 04:36:46;;;;;;;11.50;7.00;;;5.10;99.90;;;;;;4948112;28;20061;-78
2022/11/13 04:39:12;;;;;;;12.13;7.18;;;5.00;99.90;;;;;;4946972;28;20501;-79
2022/11/13 04:44:22;;;;;;;8.18;5.53;;;4.90;99.90;;;;;;4951804;28;20441;-79
2022/11/13 04:46:47;;;;;;;9.90;5.95;;;4.90;99.90;;;;;;4945550;28;20031;-79
2022/11/13 04:49:13;;;;;;;8.02;5.70;;;5.00;99.90;;;;;;4947035;28;20117;-78
2022/11/13 04:51:38;;;;;;;9.65;6.10;;;5.00;99.90;;;;;;4933096;28;20579;-79
2022/11/13 04:54:04;;;;;;;6.72;5.03;;;5.00;99.90;;;;;;4948896;28;20035;-79
2022/11/13 04:56:29;;;;;;;8.18;5.38;;;4.90;99.90;;;;;;4960716;28;20031;-79
2022/11/13 04:58:55;;;;;;;8.98;5.72;;;5.00;99.90;;;;;;4945846;28;20402;-79
2022/11/13 05:01:20;;;;;;;11.27;5.85;;;4.90;99.90;;;;;;4948142;28;20957;-79
2022/11/13 05:03:46;;;;;;;10.73;6.75;;;5.00;99.90;;;;;;4936402;28;20343;-78
2022/11/13 05:06:11;;;;;;;9.82;5.72;;;5.00;99.90;;;;;;4951321;28;20390;-78
2022/11/13 05:08:37;;;;;;;10.02;5.88;;;4.90;99.90;;;;;;4963299;28;20041;-78
2022/11/13 05:11:03;;;;;;;9.35;5.63;;;4.90;99.90;;;;;;4937474;28;20027;-78
2022/11/13 05:13:32;;;;;;;12.02;6.40;;;4.90;99.90;;;;;;4936272;28;20060;-78
2022/11/13 05:16:08;;;;;;;10.60;6.45;;;4.90;99.90;;;;;;4947439;28;20035;-78
2022/11/13 05:18:34;;;;;;;9.75;6.07;;;4.90;99.90;;;;;;4935113;28;20693;-78
2022/11/13 05:21:00;;;;;;;11.98;6.60;;;4.90;99.90;;;;;;4948653;28;20125;-78
2022/11/13 05:23:25;;;;;;;8.75;5.32;;;4.90;99.90;;;;;;4947191;28;20118;-78
2022/11/13 05:25:51;;;;;;;7.80;5.40;;;4.90;99.90;;;;;;4952682;28;20456;-78
2022/11/13 05:28:16;;;;;;;13.18;7.80;;;4.90;99.90;;;;;;4951563;28;20035;-79
2022/11/13 05:30:42;;;;;;;11.15;6.28;;;4.90;99.90;;;;;;4965939;28;20035;-78
2022/11/13 05:33:07;;;;;;;7.35;4.65;;;5.00;99.90;;;;;;4951090;28;20039;-79
2022/11/13 05:35:33;;;;;;;7.55;4.93;;;5.00;99.90;;;;;;4951214;28;20034;-79
2022/11/13 05:38:02;;;;;;;8.45;4.88;;;4.90;99.90;;;;;;4963166;28;20418;-79
2022/11/13 05:40:28;;;;;;;9.10;5.07;;;5.00;99.90;;;;;;4966139;28;20074;-78
2022/11/13 05:42:54;;;;;;;9.77;5.28;;;4.70;99.90;;;;;;4947974;28;20474;-78
2022/11/13 05:45:20;;;;;;;10.88;5.05;;;4.80;99.90;;;;;;4967465;28;20035;-79
2022/11/13 05:47:45;;;;;;;8.15;5.40;;;4.80;99.90;;;;;;4935751;28;20073;-79
2022/11/13 05:50:11;;;;;;;7.60;4.80;;;4.70;99.90;;;;;;4949147;28;20038;-78
2022/11/13 05:52:37;;;;;;;7.63;4.75;;;4.70;99.90;;;;;;4952145;28;20486;-78
2022/11/13 05:55:03;;;;;;;12.63;5.82;;;4.70;99.90;;;;;;4950457;28;20461;-78
2022/11/13 05:57:28;;;;;;;10.52;4.78;;;4.60;99.90;;;;;;4949304;28;20043;-78
2022/11/13 05:59:55;;;;;;;9.30;5.85;;;4.50;99.90;;;;;;4949871;28;20059;-79
2022/11/13 06:02:20;;;;;;;7.60;4.50;;;4.50;99.90;;;;;;4948130;28;20062;-78
2022/11/13 06:04:47;;;;;;;9.02;5.22;;;4.40;99.90;;;;;;4933017;28;20499;-78
2022/11/13 06:07:13;;;;;;;7.53;5.53;;;4.30;99.90;;;;;;4935762;28;20036;-79
2022/11/13 06:09:39;;;;;;;8.20;5.75;;;4.30;99.90;;;;;;4967512;28;20473;-78
2022/11/13 06:12:04;;;;;;;9.82;5.03;;;4.30;99.90;;;;;;4948392;28;20469;-78
2022/11/13 06:14:30;;;;;;;6.95;4.25;;;4.50;99.90;;;;;;4945829;28;20027;-78
2022/11/13 06:16:55;;;;;;;6.40;4.45;;;4.50;99.90;;;;;;4947465;28;20382;-78
2022/11/13 06:19:22;;;;;;;6.65;4.32;;;4.50;99.90;;;;;;4952720;28;20605;-78
2022/11/13 06:21:48;;;;;;;7.05;4.07;;;4.50;99.90;;;;;;4965933;28;20081;-78
2022/11/13 06:24:13;;;;;;;7.38;4.18;;;4.40;99.90;;;;;;4936053;28;20065;-78
2022/11/13 06:26:39;;;;;;;10.82;4.93;;;4.50;99.90;;;;;;4968220;28;20467;-78
2022/11/13 06:29:05;;;;;;;7.28;4.22;;;4.40;99.90;;;;;;4935158;28;20402;-78
2022/11/13 06:31:33;;;;;;;8.30;4.18;;;4.50;99.90;;;;;;4951046;28;20031;-78
2022/11/13 06:33:58;;;;;;;5.65;3.83;;;4.50;99.90;;;;;;4951473;28;20030;-79
2022/11/13 06:36:28;;;;;;;8.82;4.63;;;4.40;99.90;;;;;;4965015;28;20414;-78
2022/11/13 06:38:54;;;;;;;7.25;5.00;;;4.30;99.90;;;;;;4935341;28;20110;-78
2022/11/13 06:41:21;;;;;;;7.65;4.95;;;4.20;99.90;;;;;;4951046;28;20438;-79
2022/11/13 06:43:47;;;;;;;10.80;5.70;;;4.20;99.90;;;;;;4968607;28;20444;-80
2022/11/13 06:46:14;;;;;;;11.00;5.65;;;4.10;99.90;;;;;;4934342;28;20055;-78
2022/11/13 06:48:40;;;;;;;9.70;5.63;;;4.10;99.90;;;;;;4980133;28;20070;-79
2022/11/13 06:51:06;;;;;;;9.50;5.00;;;4.00;99.90;;;;;;4933995;28;20046;-79
2022/11/13 06:53:32;;;;;;;9.93;5.35;;;4.00;99.90;;;;;;4931577;28;20525;-78
2022/11/13 06:55:58;;;;;;;10.07;5.15;;;4.10;99.90;;;;;;4949897;28;20031;-79
2022/11/13 06:58:23;;;;;;;7.93;5.30;;;4.10;99.90;;;;;;4949800;28;20030;-79
2022/11/13 07:00:49;;;;;;;9.43;5.32;;;4.10;99.90;;;;;;4952342;28;20109;-78
2022/11/13 07:03:18;;;;;;;7.88;5.28;;;4.00;99.90;;;;;;4962590;28;20494;-79
2022/11/13 07:05:44;;;;;;;9.98;5.70;;;4.00;99.90;;;;;;4968510;28;20490;-79
2022/11/13 07:08:10;;;;;;;8.45;5.47;;;4.00;99.90;;;;;;4928276;28;20035;-79
2022/11/13 07:10:36;;;;;;;10.70;6.30;;;4.00;99.90;;;;;;4965334;28;20078;-79
2022/11/13 07:13:01;;;;;;;12.10;6.57;;;4.00;99.90;;;;;;4966026;28;20505;-79
2022/11/13 07:15:27;;;;;;;7.43;5.55;;;4.10;99.90;;;;;;4933185;28;20031;-79
2022/11/13 07:17:52;;;;;;;6.95;4.85;;;4.20;99.90;;;;;;4963056;28;20031;-78
2022/11/13 07:20:18;;;;;;;8.60;5.00;;;4.20;99.90;;;;;;4934278;28;20097;-79
2022/11/13 07:22:44;;;;;;;9.50;5.55;;;4.20;99.90;;;;;;4949846;28;20058;-79
2022/11/13 07:25:09;;;;;;;8.15;5.60;;;4.20;99.90;;;;;;4966154;28;20042;-79
2022/11/13 07:27:35;;;;;;;11.27;5.32;;;4.20;99.90;;;;;;4964286;28;20027;-79
2022/11/13 07:30:01;;;;;;;7.68;6.00;;;4.20;99.90;;;;;;4953422;28;20713;-78
2022/11/13 07:32:26;;;;;;;8.23;5.95;;;4.20;99.90;;;;;;4949866;28;20038;-79
2022/11/13 07:34:52;;;;;;;10.30;6.13;;;4.20;99.90;;;;;;4965468;28;20458;-78
2022/11/13 07:37:17;;;;;;;9.35;6.43;;;4.20;99.90;;;;;;4952043;28;20053;-79
2022/11/13 07:39:43;;;;;;;12.05;6.55;;;4.20;99.90;;;;;;4977216;28;20055;-79
2022/11/13 07:42:08;;;;;;;8.60;5.95;;;4.20;99.90;;;;;;4934189;28;20034;-79
2022/11/13 07:44:35;;;;;;;9.77;6.10;;;4.30;99.90;;;;;;4962440;28;20031;-78
2022/11/13 07:47:00;;;;;;;10.40;6.00;;;4.40;99.90;;;;;;4952126;28;20121;-78
2022/11/13 07:49:26;;;;;;;12.30;6.43;;;4.30;99.90;;;;;;4944386;28;20110;-78
2022/11/13 07:51:52;;;;;;;8.57;6.63;;;4.50;99.90;;;;;;4950731;28;20039;-78
2022/11/13 07:54:17;;;;;;;11.85;6.90;;;4.60;99.90;;;;;;4932566;28;20027;-78
2022/11/13 07:56:46;;;;;;;10.20;5.20;;;4.60;99.90;;;;;;4967469;28;20393;-79
2022/11/13 07:59:11;;;;;;;7.80;5.50;;;4.60;99.90;;;;;;4963163;28;20035;-78
2022/11/13 08:01:37;;;;;;;9.13;5.45;;;4.60;99.90;;;;;;4979197;28;20043;-78
2022/11/13 08:04:02;;;;;;;10.48;5.43;;;4.80;99.90;;;;;;4928926;28;20034;-78
2022/11/13 08:06:28;;;;;;;12.00;6.00;;;4.90;99.90;;;;;;4949087;28;20114;-78
2022/11/13 08:08:54;;;;;;;7.97;4.97;;;5.00;99.90;;;;;;4945769;28;20126;-78
2022/11/13 08:11:19;;;;;;;11.80;5.40;;;5.10;99.90;;;;;;4966783;28;20155;-78
2022/11/13 08:13:45;;;;;;;5.82;4.53;;;5.20;99.90;;;;;;4965024;28;20081;-78
2022/11/13 08:16:10;;;;;;;7.32;4.43;;;5.30;99.90;;;;;;4931009;28;20035;-78
2022/11/13 08:18:36;;;;;;;7.65;5.07;;;5.60;99.90;;;;;;4960753;28;20042;-78
2022/11/13 08:21:02;;;;;;;8.35;5.05;;;5.70;99.90;;;;;;4950626;28;20037;-78
2022/11/13 08:23:28;;;;;;;6.90;4.80;;;5.80;99.90;;;;;;4930931;28;20394;-79
2022/11/13 08:25:53;;;;;;;9.20;6.20;;;6.10;99.90;;;;;;4942560;28;20039;-79
2022/11/13 08:28:19;;;;;;;6.47;5.38;;;6.30;99.90;;;;;;4948539;28;20031;-79
2022/11/13 08:30:45;;;;;;;8.70;5.90;;;6.40;99.90;;;;;;4946268;28;20031;-78
2022/11/13 08:33:10;;;;;;;8.75;5.40;;;6.40;99.90;;;;;;4952501;28;20039;-78
2022/11/13 08:35:36;;;;;;;9.05;4.43;;;6.60;99.90;;;;;;4959033;28;20549;-79
2022/11/13 08:38:05;;;;;;;8.70;4.32;;;6.50;99.90;;;;;;4953510;28;20050;-79
2022/11/13 08:40:31;;;;;;;5.18;3.65;;;6.60;99.90;;;;;;4949019;28;20035;-79
2022/11/13 08:43:00;;;;;;;4.32;3.03;;;6.90;99.90;;;;;;4964343;28;20040;-79
2022/11/13 08:45:27;;;;;;;6.75;4.00;;;7.10;99.90;;;;;;4964532;28;20033;-79
2022/11/13 08:47:52;;;;;;;5.50;3.20;;;7.30;99.90;;;;;;4963388;28;20512;-79
2022/11/13 08:50:20;;;;;;;8.43;4.88;;;7.40;99.90;;;;;;4934286;28;20035;-79
2022/11/13 08:52:46;;;;;;;11.30;3.95;;;7.70;99.90;;;;;;4930825;28;20058;-79
2022/11/13 08:55:11;;;;;;;9.95;4.07;;;7.70;99.90;;;;;;4935069;28;20023;-79
2022/11/13 08:57:39;;;;;;;6.32;3.92;;;7.90;99.90;;;;;;4965362;28;20059;-79
2022/11/13 09:00:05;;;;;;;7.68;3.35;;;8.10;99.90;;;;;;4950334;28;20041;-79
2022/11/13 09:02:31;;;;;;;7.28;3.50;;;8.20;99.90;;;;;;4947596;28;20101;-80
2022/11/13 09:04:56;;;;;;;7.22;3.80;;;8.40;99.90;;;;;;4947685;28;20069;-79
2022/11/13 09:07:22;;;;;;;5.90;3.22;;;8.60;99.90;;;;;;4964243;28;20055;-80
2022/11/13 09:09:47;;;;;;;5.60;3.00;;;8.90;99.90;;;;;;4965092;28;20095;-79
2022/11/13 09:12:13;;;;;;;4.25;3.42;;;9.10;99.90;;;;;;4949916;28;20035;-79
2022/11/13 09:14:38;;;;;;;4.53;3.45;;;9.10;99.90;;;;;;4961619;28;21056;-78
2022/11/13 09:17:04;;;;;;;5.25;3.60;;;9.30;99.90;;;;;;4955298;28;20049;-78
2022/11/13 09:19:29;;;;;;;4.05;2.78;;;9.40;99.90;;;;;;4948728;28;20105;-78
2022/11/13 09:21:55;;;;;;;3.83;2.60;;;9.60;99.90;;;;;;4948635;28;20034;-78
2022/11/13 09:24:21;;;;;;;5.95;3.42;;;9.80;99.90;;;;;;4964356;28;20042;-78
2022/11/13 09:26:46;;;;;;;4.03;2.92;;;9.70;99.90;;;;;;4948532;28;20042;-78
2022/11/13 09:29:12;;;;;;;3.85;2.80;;;10.10;99.90;;;;;;4946287;28;20031;-78
2022/11/13 09:31:39;;;;;;;5.53;2.78;;;10.20;99.90;;;;;;4945343;28;20042;-78
2022/11/13 09:34:05;;;;;;;7.60;2.50;;;10.40;99.90;;;;;;4941091;28;20031;-77
2022/11/13 09:36:31;;;;;;;5.03;2.78;;;10.50;99.90;;;;;;4948753;28;20032;-77
2022/11/13 09:38:56;;;;;;;5.15;3.22;;;10.60;99.90;;;;;;4949506;28;20077;-77
2022/11/13 09:41:25;;;;;;;4.78;3.13;;;10.50;99.90;;;;;;4949253;28;20089;-79
2022/11/13 09:43:52;;;;;;;5.65;2.90;;;11.00;99.90;;;;;;4944829;28;20054;-79
2022/11/13 09:46:50;;;;;;;8.30;2.92;;;11.30;99.90;;;;;;4945810;28;20051;-77
2022/11/13 09:49:18;;;;;;;6.93;4.00;;;11.50;99.90;;;;;;4961712;28;20228;-78
2022/11/13 09:51:51;;;;;;;5.20;4.00;;;11.60;99.90;;;;;;4968654;28;20047;-77
2022/11/13 09:54:17;;;;;;;5.80;3.70;;;11.60;99.90;;;;;;4922443;28;20055;-78
2022/11/13 09:56:49;;;;;;;6.60;3.42;;;12.10;99.90;;;;;;4935395;28;20545;-78
2022/11/13 09:59:22;;;;;;;5.97;3.65;;;12.60;99.90;;;;;;4946219;28;20411;-78
2022/11/13 10:01:54;;;;;;;6.28;3.58;;;12.60;99.90;;;;;;4951988;28;20146;-79
2022/11/13 10:04:28;;;;;;;5.18;3.63;;;13.10;99.90;;;;;;4951757;28;20038;-80
2022/11/13 10:07:03;;;;;;;7.38;3.58;;;13.30;99.90;;;;;;4952528;28;20043;-79
2022/11/13 10:09:37;;;;;;;6.70;4.40;;;13.10;99.90;;;;;;4933901;28;20085;-80
2022/11/13 10:12:06;;;;;;;5.45;4.05;;;12.80;99.90;;;;;;4948142;28;20038;-79
2022/11/13 10:14:42;;;;;;;7.63;4.70;;;13.10;99.90;;;;;;4975519;28;20035;-79
2022/11/13 10:17:23;;;;;;;6.22;3.90;;;13.00;99.90;;;;;;4960286;28;20501;-79
2022/11/13 10:19:51;;;;;;;5.15;4.05;;;13.20;99.90;;;;;;4961125;28;20039;-79
2022/11/13 10:22:19;;;;;;;7.10;4.60;;;13.00;99.90;;;;;;4980529;28;20105;-79
2022/11/13 10:24:44;;;;;;;5.82;4.63;;;13.10;99.90;;;;;;4949056;28;20474;-79
2022/11/13 10:27:12;;;;;;;7.55;3.75;;;13.50;99.90;;;;;;4977117;28;20069;-79
2022/11/13 10:29:37;;;;;;;6.05;4.22;;;13.90;99.90;;;;;;4978525;28;20033;-78
2022/11/13 10:32:32;;;;;;;6.78;4.03;;;13.90;99.90;;;;;;4932643;28;20413;-79
2022/11/13 10:35:08;;;;;;;5.53;4.20;;;14.20;99.90;;;;;;4912394;28;20132;-79
2022/11/13 10:38:02;;;;;;;8.73;5.68;;;14.10;99.90;;;;;;4979144;28;20043;-79
2022/11/13 10:40:33;;;;;;;5.70;3.60;;;14.50;99.90;;;;;;4945878;28;20310;-79
2022/11/13 10:43:22;;;;;;;6.95;4.80;;;15.10;99.90;;;;;;4942586;28;20672;-79
2022/11/13 10:46:01;;;;;;;10.30;4.55;;;15.30;99.90;;;;;;4926287;28;20054;-79
2022/11/13 10:48:28;;;;;;;5.05;3.90;;;15.30;99.90;;;;;;4948691;28;20042;-78
2022/11/13 10:51:06;;;;;;;7.80;4.43;;;15.80;99.90;;;;;;4963615;28;20035;-78
2022/11/13 10:53:40;;;;;;;7.22;4.25;;;16.10;99.90;;;;;;4934525;28;20701;-80
2022/11/13 10:56:27;;;;;;;5.82;3.75;;;16.60;99.90;;;;;;4938955;28;20032;-80
2022/11/13 10:59:14;;;;;;;8.23;4.75;;;16.80;99.90;;;;;;4940350;28;20031;-80
2022/11/13 11:01:40;;;;;;;5.88;4.15;;;17.10;99.90;;;;;;4950278;28;20027;-80
2022/11/13 11:04:06;;;;;;;6.95;5.40;;;16.60;99.90;;;;;;4942434;28;20454;-80
2022/11/13 11:06:38;;;;;;;8.57;4.72;;;16.60;99.90;;;;;;4951999;28;20483;-79
2022/11/13 11:09:15;;;;;;;6.60;4.22;;;16.70;99.90;;;;;;4951299;28;20041;-79
2022/11/13 11:14:36;;;;;;;6.30;3.83;;;16.50;99.90;;;;;;4951085;28;20054;-80
2022/11/13 11:17:03;;;;;;;6.70;5.30;;;17.30;99.90;;;;;;4964934;28;20347;-80
2022/11/13 11:19:29;;;;;;;6.75;5.30;;;17.90;99.90;;;;;;4947512;28;20050;-79
2022/11/13 11:22:14;;;;;;;8.00;5.03;;;16.50;99.90;;;;;;4945739;28;20183;-79
2022/11/13 11:25:04;;;;;;;8.70;5.57;;;15.60;99.90;;;;;;4946489;28;20035;-79
2022/11/13 11:27:49;;;;;;;6.28;4.50;;;15.70;99.90;;;;;;4949346;28;20720;-79
2022/11/13 11:30:19;;;;;;;8.02;4.53;;;15.60;99.90;;;;;;4949553;28;20478;-79
2022/11/13 11:32:47;;;;;;;7.88;4.32;;;15.60;99.90;;;;;;4263820;28;10000122;-79
2022/11/13 11:35:38;;;;;;;5.93;3.83;;;15.70;98.00;;;;;;4948901;28;20035;-79
2022/11/13 11:38:12;;;;;;;4.78;3.63;;;16.10;98.80;;;;;;4944842;28;20402;-79
2022/11/13 11:40:43;;;;;;;5.25;3.63;;;16.90;99.90;;;;;;4930479;28;20042;-79
2022/11/13 11:43:32;;;;;;;6.18;3.88;;;16.30;95.90;;;;;;4965063;28;20062;-79
2022/11/13 11:45:59;;;;;;;4.25;3.35;;;16.40;98.30;;;;;;4951604;28;20045;-80
2022/11/13 11:48:29;;;;;;;4.72;3.42;;;16.50;98.20;;;;;;4949557;28;20054;-80
2022/11/13 11:51:12;;;;;;;5.82;3.30;;;17.10;99.90;;;;;;4945369;28;20545;-80
2022/11/13 11:53:55;;;;;;;4.32;3.03;;;17.40;98.00;;;;;;4958996;28;20111;-80
2022/11/13 11:56:45;;;;;;;5.63;3.58;;;18.10;99.90;;;;;;4963374;28;20031;-80
2022/11/13 11:59:18;;;;;;;5.03;3.30;;;18.80;99.90;;;;;;4937333;28;20026;-80
2022/11/13 12:02:04;;;;;;;3.88;2.90;;;18.40;96.40;;;;;;4951150;28;20034;-81
2022/11/13 12:04:39;;;;;;;5.45;3.72;;;19.00;98.20;;;;;;4956424;28;20502;-81
2022/11/13 12:07:20;;;;;;;4.10;3.10;;;19.30;97.70;;;;;;4931241;28;20187;-82
2022/11/13 12:10:02;;;;;;;6.63;3.65;;;20.20;95.20;;;;;;4962944;28;20031;-81
2022/11/13 12:12:43;;;;;;;5.50;3.25;;;19.70;96.90;;;;;;4946875;28;20788;-81
2022/11/13 12:15:28;;;;;;;5.93;3.03;;;19.60;96.20;;;;;;4946657;28;20047;-82
2022/11/13 12:18:18;;;;;;;5.28;3.20;;;20.30;95.80;;;;;;4964400;28;20034;-82
2022/11/13 12:20:57;;;;;;;6.20;3.88;;;20.60;95.20;;;;;;4951517;28;20501;-83
2022/11/13 12:23:45;;;;;;;5.95;3.40;;;20.70;95.10;;;;;;4959437;28;20848;-82
2022/11/13 12:26:16;;;;;;;5.30;3.30;;;19.80;91.80;;;;;;4964699;28;20122;-83
2022/11/13 12:29:09;;;;;;;5.90;3.53;;;19.20;94.50;;;;;;4966549;28;20131;-82
2022/11/13 12:31:38;;;;;;;7.60;4.07;;;19.40;93.80;;;;;;4944381;28;20834;-83
2022/11/13 12:34:12;;;;;;;6.78;4.03;;;19.50;90.20;;;;;;4950572;28;20430;-84
2022/11/13 12:36:38;;;;;;;5.28;3.22;;;19.60;93.80;;;;;;4946437;28;20580;-83
2022/11/13 12:39:50;;;;;;;7.85;3.97;;;19.60;95.80;;;;;;4945613;28;20027;-85
2022/11/13 12:42:40;;;;;;;11.02;4.63;;;19.50;91.10;;;;;;4870100;29;20044;-82
2022/11/13 12:45:36;;;;;;;7.60;3.92;;;19.80;90.50;;;;;;4963212;28;20023;-84
2022/11/13 12:48:27;;;;;;;5.43;4.30;;;19.80;94.90;;;;;;4961589;28;20034;-85
2022/11/13 12:50:58;;;;;;;5.82;3.58;;;20.00;91.40;;;;;;4946227;28;20506;-85
2022/11/13 12:53:27;;;;;;;9.40;4.03;;;18.80;84.80;;;;;;4960358;28;20031;-84
2022/11/13 12:56:00;;;;;;;4.53;2.92;;;19.60;92.60;;;;;;4965341;28;20376;-87
2022/11/13 12:58:30;;;;;;;6.13;3.95;;;20.40;94.00;;;;;;4945553;28;20151;-84
2022/11/13 13:01:12;;;;;;;5.85;3.78;;;19.50;88.80;;;;;;4935280;28;20102;-85
2022/11/13 13:03:46;;;;;;;7.45;4.57;;;19.40;89.70;;;;;;4942365;28;20027;-85